LSZA Airport Information

Runway Information
Runway 01 Length 4429 ft width 98 ft
Elevation 896 ft Threshold 361 ft Heading 19
Runway 19 Length 4429 ft Width 98 ft
Elevation 915 ft Threshold 672 ft Heading 199
Airport Frequencies
Type ATIS Name ATIS Frequency 121.175 MHZ
Type GND Name GND Frequency 121.775 MHZ
Type TWR Name TWR Frequency 120.25 MHZ
Airport Navaids
Airport Weather Information & NOTAM
ADDS - METARS form results

(0107 UTC 19 September 2021)
Data provider http://aviationweather.gov/metar/data/
 
METAR text: LSZA 190050Z AUTO VRB02KT 9999 -RA FEW060TCU SCT070 BKN100 17/16 Q1013
Conditions at: LSZA (LUGANO (PVT/AUT), CH) observed 0050 UTC 19 September 2021
Temperature: 17.0°C (63°F)
Dewpoint: 16.0°C (61°F) [RH = 94%]
Pressure (altimeter): 29.91 inches Hg (1013.0 mb)
Winds: variable direction winds at 2 MPH (2 knots; 1.0 m/s)
Visibility: 6 or more miles (10+ km)
Ceiling: 10000 feet AGL
Clouds: few clouds at 6000 feet AGL
scattered clouds at 7000 feet AGL
broken clouds at 10000 feet AGL
Weather: -RA  (light rain)

METAR text: LSZA 190020Z AUTO 36004KT 320V060 9999 -RA SCT055TCU SCT065 BKN095 17/16 Q1013
Conditions at: LSZA (LUGANO (PVT/AUT), CH) observed 0020 UTC 19 September 2021
Temperature: 17.0°C (63°F)
Dewpoint: 16.0°C (61°F) [RH = 94%]
Pressure (altimeter): 29.91 inches Hg (1013.0 mb)
Winds: from the N (360 degrees) at 5 MPH (4 knots; 2.1 m/s)
Visibility: 6 or more miles (10+ km)
Ceiling: 9500 feet AGL
Clouds: scattered clouds at 5500 feet AGL
scattered clouds at 6500 feet AGL
broken clouds at 9500 feet AGL
Weather: -RA  (light rain)

Forecast for: LSZA (LUGANO (PVT/AUT), CH)
Text: TAF LSZA 181425Z 1815/1824 VRB02KT 9999 SCT030
Forecast period: 1500 UTC 18 September 2021 to 0000 UTC 19 September 2021
Forecast type: FROM: standard forecast or significant change
Winds: variable direction winds at 2 MPH (2 knots; 1.0 m/s)
Visibility: 6 or more miles (10+ km)
Ceiling: at least 12,000 feet AGL
Clouds: scattered clouds at 3000 feet AGL
Weather: no significant weather forecast for this period
Text: PROB30
Forecast period: 1900 UTC 18 September 2021 to 0000 UTC 19 September 2021
Forecast type: TEMPORARY: The following changes expected for less than half the time period
Visibility: missing
Ceiling: 3000 feet AGL
Clouds: scattered clouds at 2000 feet AGL
broken clouds at 3000 feet AGL
Weather: SHRA  (rain showers)